Schedule Details

Flight Number: ASXVIP1X
Departure: Bornholm Rønne (EKRN) at 20:00
Arrival: Gdansk im. Lecha Walesy (EPGD) at 21:00

Weather Information
EKRN 272250Z AUTO 06013KT 9999NDV OVC140/// 15/12 Q1024
EPGD 272230Z 06005KT 030V090 CAVOK 16/15 Q1025

Schedule Frequency

Route Map